Time;durP1;ratioP1;P1;durP2;ratioP2;P2;SDS_P1;SDS_P2;PMS_P1;PMS_P2;Temp;Humidity;BMP_temperature;BMP_pressure;BME280_temperature;BME280_humidity;BME280_pressure;Samples;Min_cycle;Max_cycle;Signal;HPM_P1;HPM_P2
2022/09/12 00:02:20;;;;;;;4.43;2.03;;;15.40;99.90;;;;;;4972090;28;20046;-73
2022/09/12 00:04:46;;;;;;;6.47;3.20;;;15.20;99.90;;;;;;4987319;28;20122;-73
2022/09/12 00:07:12;;;;;;;4.57;2.67;;;15.20;99.90;;;;;;4971184;28;20360;-73
2022/09/12 00:09:38;;;;;;;5.22;2.58;;;15.20;99.90;;;;;;4971747;28;20026;-73
2022/09/12 00:12:04;;;;;;;5.80;3.03;;;15.10;99.90;;;;;;4970600;28;20030;-73
2022/09/12 00:14:30;;;;;;;7.47;3.13;;;14.80;99.90;;;;;;4970818;28;20118;-73
2022/09/12 00:16:59;;;;;;;6.88;3.10;;;14.90;99.90;;;;;;4972200;28;20109;-73
2022/09/12 00:19:27;;;;;;;6.72;3.13;;;14.80;99.90;;;;;;4971722;28;20041;-73
2022/09/12 00:21:53;;;;;;;4.65;2.72;;;14.90;99.90;;;;;;4954763;28;20023;-73
2022/09/12 00:24:19;;;;;;;6.05;3.35;;;14.90;99.90;;;;;;4970431;28;20030;-71
2022/09/12 00:26:45;;;;;;;7.35;3.28;;;15.00;99.90;;;;;;4971922;28;20034;-72
2022/09/12 00:29:16;;;;;;;4.75;2.45;;;14.90;99.90;;;;;;4971666;28;20027;-72
2022/09/12 00:31:42;;;;;;;6.18;3.13;;;14.90;99.90;;;;;;4970912;28;20045;-72
2022/09/12 00:34:08;;;;;;;5.60;2.92;;;15.00;99.90;;;;;;4970259;28;20030;-72
2022/09/12 00:36:35;;;;;;;5.63;2.95;;;15.00;99.90;;;;;;4972069;28;20127;-72
2022/09/12 00:39:02;;;;;;;8.07;3.60;;;14.90;99.90;;;;;;4970224;28;20460;-72
2022/09/12 00:41:46;;;;;;;6.43;3.15;;;15.00;99.90;;;;;;4971858;28;20035;-72
2022/09/12 00:44:12;;;;;;;5.88;2.55;;;15.00;99.90;;;;;;4972012;28;20081;-72
2022/09/12 00:46:47;;;;;;;5.72;3.05;;;14.80;99.90;;;;;;4971843;28;20030;-72
2022/09/12 00:49:26;;;;;;;7.30;2.65;;;14.70;99.90;;;;;;4973985;28;20038;-72
2022/09/12 00:52:06;;;;;;;6.45;2.67;;;14.70;99.90;;;;;;4974330;28;20034;-72
2022/09/12 00:54:41;;;;;;;4.65;2.67;;;14.80;99.90;;;;;;4974390;28;20383;-73
2022/09/12 00:57:12;;;;;;;8.13;3.58;;;14.80;99.90;;;;;;4974918;28;20123;-72
2022/09/12 00:59:57;;;;;;;5.85;2.72;;;14.80;99.90;;;;;;4974160;28;20110;-72
2022/09/12 01:02:23;;;;;;;5.75;2.30;;;14.80;99.90;;;;;;4973748;28;20489;-72
2022/09/12 01:04:49;;;;;;;7.13;3.25;;;14.70;99.90;;;;;;4967644;28;20483;-73
2022/09/12 01:07:15;;;;;;;4.90;2.72;;;14.80;99.90;;;;;;4957878;28;20039;-72
2022/09/12 01:09:44;;;;;;;5.95;3.42;;;14.60;99.90;;;;;;4978212;28;20027;-72
2022/09/12 01:12:12;;;;;;;5.05;3.15;;;14.50;99.90;;;;;;4986143;28;20471;-72
2022/09/12 01:14:38;;;;;;;6.28;2.58;;;14.50;99.90;;;;;;4988437;28;20045;-72
2022/09/12 01:17:04;;;;;;;4.18;2.70;;;14.50;99.90;;;;;;4955926;28;20357;-72
2022/09/12 01:20:08;;;;;;;4.63;2.65;;;14.60;99.90;;;;;;4970379;28;20043;-72
2022/09/12 01:23:04;;;;;;;7.20;3.30;;;14.50;99.90;;;;;;4969599;28;20225;-72
2022/09/12 01:25:54;;;;;;;5.97;3.35;;;14.50;99.90;;;;;;4936470;29;20568;-72
2022/09/12 01:29:02;;;;;;;4.45;2.83;;;14.20;99.90;;;;;;4936731;29;20054;-72
2022/09/12 01:31:39;;;;;;;5.03;2.80;;;14.30;99.90;;;;;;4950151;28;20452;-72
2022/09/12 01:34:27;;;;;;;6.30;3.42;;;14.40;99.90;;;;;;4950756;29;20119;-72
2022/09/12 01:37:34;;;;;;;8.10;3.10;;;14.30;99.90;;;;;;4935127;29;20110;-72
2022/09/12 01:40:22;;;;;;;4.28;2.38;;;14.30;99.90;;;;;;4936030;29;20038;-72
2022/09/12 01:43:20;;;;;;;4.22;2.25;;;14.20;99.90;;;;;;4934452;29;20468;-72
2022/09/12 01:46:19;;;;;;;5.57;2.67;;;14.20;99.90;;;;;;4935014;29;20052;-72
2022/09/12 01:49:26;;;;;;;6.82;3.35;;;14.00;99.90;;;;;;4920948;29;20657;-72
2022/09/12 01:52:23;;;;;;;8.85;4.32;;;14.00;99.90;;;;;;4935792;29;20110;-71
2022/09/12 01:55:05;;;;;;;3.28;2.25;;;14.00;99.90;;;;;;4935158;29;20082;-72
2022/09/12 01:57:40;;;;;;;7.57;3.45;;;14.00;99.90;;;;;;4935941;29;20437;-72
2022/09/12 02:00:10;;;;;;;5.82;2.90;;;14.10;99.90;;;;;;4934414;29;20032;-72
2022/09/12 02:02:47;;;;;;;3.67;2.42;;;14.00;99.90;;;;;;4934419;29;20049;-72
2022/09/12 02:05:25;;;;;;;3.90;2.65;;;13.90;99.90;;;;;;4934757;29;20024;-72
2022/09/12 02:08:05;;;;;;;4.30;2.33;;;13.90;99.90;;;;;;4935865;29;20032;-72
2022/09/12 02:10:49;;;;;;;5.57;2.90;;;13.90;99.90;;;;;;4934177;29;20440;-72
2022/09/12 02:13:23;;;;;;;5.45;2.95;;;13.90;99.90;;;;;;4934043;29;20345;-72
2022/09/12 02:15:57;;;;;;;5.55;2.92;;;14.00;99.90;;;;;;4960723;28;20447;-72
2022/09/12 02:18:28;;;;;;;6.78;2.95;;;14.10;99.90;;;;;;4974293;28;20626;-72
2022/09/12 02:20:56;;;;;;;6.10;3.03;;;14.20;99.90;;;;;;4988613;28;20143;-72
2022/09/12 02:23:30;;;;;;;5.55;3.40;;;14.20;99.90;;;;;;4988209;28;20031;-72
2022/09/12 02:26:07;;;;;;;4.35;2.67;;;14.30;99.90;;;;;;4988723;28;20030;-72
2022/09/12 02:28:37;;;;;;;5.30;3.95;;;14.20;99.90;;;;;;4988146;28;20093;-72
2022/09/12 02:31:15;;;;;;;6.65;2.83;;;13.90;99.90;;;;;;4988147;28;20030;-72
2022/09/12 02:33:48;;;;;;;8.25;3.45;;;14.00;99.90;;;;;;4973363;28;20039;-72
2022/09/12 02:36:50;;;;;;;5.90;2.65;;;14.10;99.90;;;;;;4973876;28;20130;-72
2022/09/12 02:39:20;;;;;;;4.05;2.67;;;14.10;99.90;;;;;;4973312;28;20034;-72
2022/09/12 02:41:58;;;;;;;4.88;2.50;;;14.10;99.90;;;;;;4988134;28;20069;-72
2022/09/12 02:44:25;;;;;;;4.63;2.67;;;14.20;99.90;;;;;;4988433;28;20109;-72
2022/09/12 02:46:59;;;;;;;5.47;3.22;;;14.00;99.90;;;;;;4988523;28;20123;-72
2022/09/12 02:49:25;;;;;;;6.38;2.80;;;13.80;99.90;;;;;;4973237;28;20034;-72
2022/09/12 02:51:51;;;;;;;3.65;2.40;;;13.90;99.90;;;;;;4973368;28;20026;-72
2022/09/12 02:54:18;;;;;;;5.00;2.72;;;14.00;99.90;;;;;;4991009;23;20477;-71
2022/09/12 02:56:45;;;;;;;5.35;2.60;;;14.00;99.90;;;;;;4967145;28;20041;-72
2022/09/12 02:59:16;;;;;;;6.00;2.90;;;13.90;99.90;;;;;;4990059;28;20037;-72
2022/09/12 03:02:12;;;;;;;5.10;2.47;;;13.90;99.90;;;;;;4975870;28;20033;-71
2022/09/12 03:05:28;;;;;;;6.10;2.70;;;13.90;99.90;;;;;;4957426;28;20058;-72
2022/09/12 03:08:27;;;;;;;6.30;3.15;;;13.90;99.90;;;;;;4966318;28;20057;-71
2022/09/12 03:11:20;;;;;;;6.15;2.63;;;13.80;99.90;;;;;;4972332;28;20027;-72
2022/09/12 03:14:25;;;;;;;10.15;2.90;;;13.80;99.90;;;;;;4955603;28;20498;-72
2022/09/12 03:17:09;;;;;;;4.78;2.85;;;13.60;99.90;;;;;;4958362;28;20023;-71
2022/09/12 03:20:09;;;;;;;4.68;2.60;;;13.60;99.90;;;;;;4972612;28;20081;-71
2022/09/12 03:22:57;;;;;;;8.10;3.55;;;13.60;99.90;;;;;;4956898;28;20562;-71
2022/09/12 03:25:32;;;;;;;3.47;2.25;;;13.60;99.90;;;;;;4956036;28;20045;-72
2022/09/12 03:28:12;;;;;;;5.28;2.78;;;13.60;99.90;;;;;;4955350;28;20223;-72
2022/09/12 03:30:42;;;;;;;6.72;2.60;;;13.60;99.90;;;;;;4955537;28;20031;-71
2022/09/12 03:33:14;;;;;;;4.70;3.25;;;13.70;99.90;;;;;;4955086;28;20124;-71
2022/09/12 03:35:40;;;;;;;7.05;2.97;;;13.70;99.90;;;;;;4972609;28;20529;-71
2022/09/12 03:38:07;;;;;;;5.78;2.75;;;13.70;99.90;;;;;;4955198;28;20740;-71
2022/09/12 03:40:37;;;;;;;5.78;2.45;;;13.70;99.90;;;;;;4972194;28;20458;-71
2022/09/12 03:43:04;;;;;;;6.70;3.85;;;13.70;99.90;;;;;;4954819;28;20042;-71
2022/09/12 03:45:30;;;;;;;4.90;2.70;;;13.70;99.90;;;;;;4972114;28;20419;-71
2022/09/12 03:47:57;;;;;;;4.97;3.10;;;13.60;99.90;;;;;;4972570;28;20042;-69
2022/09/12 03:50:22;;;;;;;4.97;2.47;;;13.80;99.90;;;;;;4972102;28;20073;-68
2022/09/12 03:52:48;;;;;;;4.53;2.80;;;13.60;99.90;;;;;;4954473;28;20515;-69
2022/09/12 03:55:14;;;;;;;4.13;2.33;;;13.60;99.90;;;;;;4972286;28;20027;-69
2022/09/12 03:57:39;;;;;;;7.18;2.92;;;13.50;99.90;;;;;;4972492;28;20061;-69
2022/09/12 04:00:07;;;;;;;3.63;2.05;;;13.40;99.90;;;;;;4971335;28;20031;-69
2022/09/12 04:02:34;;;;;;;6.18;2.92;;;13.50;99.90;;;;;;4946456;28;20030;-69
2022/09/12 04:05:00;;;;;;;3.95;2.55;;;13.50;99.90;;;;;;4970962;28;20475;-69
2022/09/12 04:07:26;;;;;;;9.30;3.55;;;13.40;99.90;;;;;;4967519;28;20030;-70
2022/09/12 04:09:52;;;;;;;6.10;2.88;;;13.40;99.90;;;;;;4990872;28;20034;-69
2022/09/12 04:12:18;;;;;;;5.65;3.05;;;13.40;99.90;;;;;;4970198;28;20027;-69
2022/09/12 04:14:44;;;;;;;6.35;3.63;;;13.50;99.90;;;;;;4978445;28;20099;-70
2022/09/12 04:17:10;;;;;;;7.35;3.22;;;13.50;99.90;;;;;;4989354;28;20030;-69
2022/09/12 04:19:36;;;;;;;6.25;3.28;;;13.40;99.90;;;;;;4989707;28;20046;-69
2022/09/12 04:22:02;;;;;;;6.18;3.10;;;13.50;99.90;;;;;;4989332;28;20037;-69
2022/09/12 04:24:27;;;;;;;5.32;3.25;;;13.60;99.90;;;;;;4989116;28;20038;-70
2022/09/12 04:26:53;;;;;;;6.07;3.03;;;13.60;99.90;;;;;;4990897;28;20111;-69
2022/09/12 04:29:19;;;;;;;6.97;3.75;;;13.50;99.90;;;;;;4989472;28;20165;-69
2022/09/12 04:31:44;;;;;;;37.13;22.05;;;13.60;99.90;;;;;;4990997;28;20159;-69
2022/09/12 04:34:10;;;;;;;23.60;11.65;;;13.70;99.90;;;;;;4990035;28;20026;-69
2022/09/12 04:36:36;;;;;;;8.15;4.07;;;13.70;99.90;;;;;;4990824;28;20022;-69
2022/09/12 04:39:06;;;;;;;6.55;3.58;;;13.80;99.90;;;;;;4973161;28;20398;-70
2022/09/12 04:41:36;;;;;;;7.28;3.05;;;13.80;99.90;;;;;;4990916;28;20026;-69
2022/09/12 04:44:09;;;;;;;6.68;3.92;;;13.80;99.90;;;;;;4957245;28;20119;-70
2022/09/12 04:46:39;;;;;;;6.03;3.55;;;13.80;99.90;;;;;;4991009;28;20394;-70
2022/09/12 04:49:06;;;;;;;5.68;2.92;;;13.80;99.90;;;;;;4990512;28;20030;-72
2022/09/12 04:51:35;;;;;;;5.80;3.22;;;13.80;99.90;;;;;;4990888;28;20026;-71
2022/09/12 04:54:10;;;;;;;5.90;3.35;;;13.80;99.90;;;;;;4973239;28;20121;-70
2022/09/12 04:56:39;;;;;;;7.90;3.38;;;13.80;99.90;;;;;;4990758;28;20120;-69
2022/09/12 04:59:05;;;;;;;4.47;3.03;;;13.80;99.90;;;;;;4972845;28;20041;-71
2022/09/12 05:01:31;;;;;;;4.22;2.70;;;13.80;99.90;;;;;;4973502;28;20418;-70
2022/09/12 05:03:59;;;;;;;10.57;2.97;;;13.70;99.90;;;;;;4990405;28;20034;-71
2022/09/12 05:06:29;;;;;;;6.63;3.38;;;13.70;99.90;;;;;;4990755;28;20077;-71
2022/09/12 05:08:57;;;;;;;5.90;3.08;;;13.70;99.90;;;;;;4973305;28;20034;-71
2022/09/12 05:11:28;;;;;;;6.90;3.83;;;13.70;99.90;;;;;;4973970;28;20045;-71
2022/09/12 05:13:54;;;;;;;6.93;2.88;;;13.70;99.90;;;;;;4969115;28;20033;-72
2022/09/12 05:16:21;;;;;;;6.57;3.45;;;13.60;99.90;;;;;;4986805;28;20038;-72
2022/09/12 05:18:49;;;;;;;7.53;4.35;;;13.50;99.90;;;;;;4971962;28;20031;-71
2022/09/12 05:21:19;;;;;;;4.85;3.08;;;13.50;99.90;;;;;;4972678;28;20034;-72
2022/09/12 05:23:46;;;;;;;9.25;4.13;;;13.30;99.90;;;;;;4989509;28;20057;-72
2022/09/12 05:26:16;;;;;;;8.00;3.67;;;13.20;99.90;;;;;;4973054;28;20034;-71
2022/09/12 05:28:42;;;;;;;5.43;2.97;;;13.20;99.90;;;;;;4971936;28;20037;-71
2022/09/12 05:31:11;;;;;;;4.65;2.75;;;13.10;99.90;;;;;;4972626;28;20040;-71
2022/09/12 05:33:40;;;;;;;5.38;2.28;;;13.10;99.90;;;;;;4989130;28;20470;-71
2022/09/12 05:36:12;;;;;;;8.38;3.70;;;13.00;99.90;;;;;;4993630;28;20105;-72
2022/09/12 05:38:38;;;;;;;6.65;3.47;;;13.10;99.90;;;;;;4976558;28;20033;-72
2022/09/12 05:41:11;;;;;;;6.00;3.13;;;13.20;99.90;;;;;;4992974;28;20022;-72
2022/09/12 05:43:38;;;;;;;6.45;4.07;;;13.40;99.90;;;;;;4959998;28;20566;-71
2022/09/12 05:46:07;;;;;;;8.68;4.45;;;13.40;99.90;;;;;;4993186;28;20471;-72
2022/09/12 05:48:35;;;;;;;9.10;4.45;;;13.40;99.90;;;;;;4976396;28;20111;-72
2022/09/12 05:51:09;;;;;;;7.25;3.10;;;13.40;99.90;;;;;;4992989;28;20034;-72
2022/09/12 05:53:39;;;;;;;7.35;3.42;;;13.30;99.90;;;;;;4974891;28;20038;-72
2022/09/12 05:56:10;;;;;;;12.10;3.75;;;13.40;99.90;;;;;;4993330;28;20117;-72
2022/09/12 05:58:38;;;;;;;9.60;3.53;;;13.40;99.90;;;;;;4976470;28;20038;-70
2022/09/12 06:01:11;;;;;;;12.95;4.65;;;13.50;99.90;;;;;;4988374;28;20030;-72
2022/09/12 06:03:43;;;;;;;16.65;5.10;;;13.60;99.90;;;;;;4992514;28;20030;-71
2022/09/12 06:06:13;;;;;;;9.23;4.43;;;13.60;99.90;;;;;;4975450;28;20505;-72
2022/09/12 06:08:45;;;;;;;8.68;3.97;;;13.60;99.90;;;;;;4975079;28;20454;-72
2022/09/12 06:11:16;;;;;;;7.63;3.67;;;13.70;99.90;;;;;;4993106;28;20026;-72
2022/09/12 06:13:42;;;;;;;11.00;5.35;;;13.90;99.90;;;;;;4991045;28;20035;-72
2022/09/12 06:16:24;;;;;;;11.75;6.50;;;13.90;99.90;;;;;;4992869;28;20403;-72
2022/09/12 06:18:53;;;;;;;8.15;4.13;;;14.00;99.90;;;;;;4992461;28;20050;-72
2022/09/12 06:21:21;;;;;;;11.93;4.80;;;14.10;99.90;;;;;;4992747;28;20363;-72
2022/09/12 06:23:48;;;;;;;11.25;5.00;;;14.10;99.90;;;;;;4992115;28;20105;-72
2022/09/12 06:26:17;;;;;;;26.55;5.40;;;14.20;99.90;;;;;;4991299;28;20117;-73
2022/09/12 06:28:44;;;;;;;8.98;4.53;;;14.30;99.90;;;;;;4991408;28;20038;-73
2022/09/12 06:31:20;;;;;;;15.25;5.22;;;14.40;99.90;;;;;;4992196;28;20109;-72
2022/09/12 06:33:49;;;;;;;19.38;4.82;;;14.40;99.90;;;;;;4991095;28;20026;-74
2022/09/12 06:36:29;;;;;;;16.83;6.03;;;14.50;99.90;;;;;;4990051;28;20713;-73
2022/09/12 06:39:19;;;;;;;10.93;4.72;;;14.50;99.90;;;;;;4972326;28;20045;-73
2022/09/12 06:41:47;;;;;;;10.65;5.53;;;14.60;99.90;;;;;;4975729;28;20062;-73
2022/09/12 06:44:19;;;;;;;9.48;4.68;;;14.70;99.90;;;;;;4991578;28;20031;-71
2022/09/12 06:46:46;;;;;;;11.50;4.53;;;14.80;99.90;;;;;;4973946;28;20045;-71
2022/09/12 06:49:12;;;;;;;12.05;4.95;;;14.90;99.90;;;;;;4990951;28;20050;-72
2022/09/12 06:51:38;;;;;;;14.75;5.65;;;15.00;99.90;;;;;;4974865;28;20072;-72
2022/09/12 06:54:04;;;;;;;12.85;4.07;;;15.10;99.90;;;;;;4974155;28;20061;-73
2022/09/12 06:56:30;;;;;;;15.55;7.05;;;15.10;99.90;;;;;;4958368;28;20049;-72
2022/09/12 06:58:58;;;;;;;14.35;4.40;;;15.10;99.90;;;;;;4974032;28;20045;-72
2022/09/12 07:01:30;;;;;;;10.80;5.15;;;15.20;99.90;;;;;;4974125;28;20038;-71
2022/09/12 07:04:02;;;;;;;9.98;4.85;;;15.30;99.90;;;;;;4990686;28;20498;-72
2022/09/12 07:06:38;;;;;;;11.15;4.40;;;15.30;99.90;;;;;;4991786;28;20394;-72
2022/09/12 07:09:08;;;;;;;9.23;5.05;;;15.30;99.90;;;;;;4990633;28;20058;-72
2022/09/12 07:11:37;;;;;;;10.50;4.95;;;15.40;99.90;;;;;;4974471;28;20062;-71
2022/09/12 07:14:05;;;;;;;9.35;4.60;;;15.50;99.90;;;;;;4991055;28;20529;-72
2022/09/12 07:16:33;;;;;;;9.20;4.57;;;15.60;99.90;;;;;;4974716;28;20026;-72
2022/09/12 07:19:01;;;;;;;9.52;4.63;;;15.60;99.90;;;;;;4973499;28;20034;-71
2022/09/12 07:21:28;;;;;;;8.55;4.88;;;15.70;99.90;;;;;;4973727;28;20038;-72
2022/09/12 07:23:56;;;;;;;8.88;4.18;;;15.70;99.90;;;;;;4972306;28;20032;-71
2022/09/12 07:26:26;;;;;;;9.23;4.25;;;15.80;99.90;;;;;;4974103;28;20030;-73
2022/09/12 07:28:54;;;;;;;8.50;4.30;;;15.90;99.90;;;;;;4956518;28;20034;-71
2022/09/12 07:31:23;;;;;;;8.38;3.95;;;16.00;99.90;;;;;;4990774;28;20041;-72
2022/09/12 07:33:50;;;;;;;9.20;3.78;;;16.10;99.90;;;;;;4972483;28;20046;-72
2022/09/12 07:36:23;;;;;;;7.85;3.97;;;16.20;99.90;;;;;;4973868;28;20044;-72
2022/09/12 07:38:56;;;;;;;8.10;4.15;;;16.20;99.90;;;;;;4984062;28;20043;-71
2022/09/12 07:41:26;;;;;;;8.32;4.05;;;16.30;99.90;;;;;;4990764;28;20073;-72
2022/09/12 07:43:57;;;;;;;9.30;3.80;;;16.40;99.90;;;;;;4989940;28;20149;-73
2022/09/12 07:46:25;;;;;;;5.97;3.30;;;16.50;99.90;;;;;;4990845;28;20041;-72
2022/09/12 07:48:52;;;;;;;8.27;3.83;;;16.60;99.90;;;;;;4990000;28;20142;-71
2022/09/12 07:51:19;;;;;;;8.05;4.15;;;16.50;99.90;;;;;;4973450;28;20434;-71
2022/09/12 07:53:45;;;;;;;6.63;3.65;;;16.60;99.90;;;;;;4989539;28;20038;-72
2022/09/12 07:56:12;;;;;;;6.60;3.47;;;16.60;99.90;;;;;;4990527;28;20032;-71
2022/09/12 07:58:40;;;;;;;8.88;3.58;;;16.70;99.90;;;;;;4989944;28;20446;-73
2022/09/12 08:01:19;;;;;;;10.93;4.38;;;16.80;99.90;;;;;;4956670;28;20081;-71
2022/09/12 08:03:48;;;;;;;6.13;3.55;;;16.80;99.90;;;;;;4984371;28;20058;-71
2022/09/12 08:06:20;;;;;;;8.40;4.38;;;17.00;99.90;;;;;;4973503;28;20077;-71
2022/09/12 08:08:47;;;;;;;9.65;3.80;;;17.10;99.90;;;;;;4984098;28;20070;-72
2022/09/12 08:11:16;;;;;;;5.60;2.88;;;17.20;99.90;;;;;;4972969;28;20026;-72
2022/09/12 08:13:44;;;;;;;8.20;3.17;;;17.30;99.90;;;;;;4989262;28;20046;-71
2022/09/12 08:16:17;;;;;;;8.55;3.53;;;17.30;99.90;;;;;;4990213;28;20105;-72
2022/09/12 08:18:43;;;;;;;10.60;4.03;;;17.40;99.90;;;;;;4989695;28;20033;-72
2022/09/12 08:21:16;;;;;;;4.97;2.60;;;17.50;99.90;;;;;;4972694;28;20483;-72
2022/09/12 08:23:43;;;;;;;7.10;3.58;;;17.60;99.90;;;;;;4988470;28;20410;-72
2022/09/12 08:26:11;;;;;;;6.55;3.78;;;17.60;99.90;;;;;;4990248;28;20026;-72
2022/09/12 08:28:39;;;;;;;4.90;2.97;;;17.70;99.90;;;;;;4989721;28;20124;-72
2022/09/12 08:31:13;;;;;;;8.65;4.38;;;17.80;99.90;;;;;;4989957;28;20367;-72
2022/09/12 08:33:39;;;;;;;6.47;2.90;;;17.90;99.90;;;;;;4971739;28;20058;-72
2022/09/12 08:36:11;;;;;;;5.57;3.20;;;17.90;99.90;;;;;;4972860;28;20106;-72
2022/09/12 08:38:40;;;;;;;6.80;3.90;;;18.10;99.90;;;;;;4971927;28;20069;-71
2022/09/12 08:41:19;;;;;;;6.32;3.00;;;18.20;99.90;;;;;;4972379;28;20034;-72
2022/09/12 08:44:18;;;;;;;8.13;3.65;;;18.20;99.90;;;;;;4989683;28;20049;-72
2022/09/12 08:47:17;;;;;;;7.00;3.40;;;18.30;99.90;;;;;;4989989;28;20034;-71
2022/09/12 08:50:06;;;;;;;8.20;3.88;;;18.50;99.90;;;;;;4989236;28;20034;-71
2022/09/12 08:53:01;;;;;;;9.32;3.28;;;18.50;99.90;;;;;;4988982;28;20042;-71
2022/09/12 08:55:34;;;;;;;9.52;4.47;;;18.60;99.90;;;;;;4975638;28;20217;-72
2022/09/12 08:58:11;;;;;;;7.60;3.75;;;18.80;99.90;;;;;;4977086;28;20092;-72
2022/09/12 09:01:02;;;;;;;7.70;3.65;;;18.90;99.90;;;;;;4989624;28;20176;-72
2022/09/12 09:04:05;;;;;;;;;;;19.10;99.90;;;;;;4989473;28;20764;-72
2022/09/12 09:07:20;;;;;;;7.18;3.25;;;19.10;99.90;;;;;;4990396;28;19937;-72
2022/09/12 09:10:08;;;;;;;7.40;3.22;;;19.30;99.90;;;;;;4990935;28;20066;-73
2022/09/12 09:16:38;;;;;;;;;;;19.80;99.90;;;;;;4982152;28;20026;-72
2022/09/12 09:19:18;;;;;;;6.88;3.28;;;20.10;99.90;;;;;;4990344;28;19920;-72
2022/09/12 09:21:58;;;;;;;8.65;4.28;;;20.30;99.90;;;;;;4976864;28;20061;-72
2022/09/12 09:24:38;;;;;;;11.32;4.07;;;20.40;99.90;;;;;;4967328;28;20245;-72
2022/09/12 09:27:13;;;;;;;6.47;2.85;;;20.60;99.90;;;;;;4993222;28;20081;-72
2022/09/12 09:29:45;;;;;;;8.00;3.30;;;20.60;99.90;;;;;;4975508;28;20404;-72
2022/09/12 09:32:23;;;;;;;8.60;3.70;;;20.70;99.90;;;;;;4975495;28;20507;-72
2022/09/12 09:34:50;;;;;;;9.23;3.28;;;20.90;99.90;;;;;;4976697;28;20052;-72
2022/09/12 09:37:34;;;;;;;10.57;3.58;;;21.10;99.90;;;;;;4975249;28;20038;-72
2022/09/12 09:40:18;;;;;;;5.40;2.80;;;21.10;99.90;;;;;;4973256;28;20430;-70
2022/09/12 09:42:58;;;;;;;6.63;3.03;;;21.20;99.90;;;;;;4992312;28;20045;-74
2022/09/12 09:45:28;;;;;;;5.57;3.03;;;21.20;99.90;;;;;;4976469;28;20451;-70
2022/09/12 09:48:18;;;;;;;5.10;3.05;;;21.30;99.90;;;;;;4971928;28;20037;-70
2022/09/12 09:50:47;;;;;;;5.47;2.30;;;21.50;99.90;;;;;;4978246;28;20030;-70
2022/09/12 09:53:41;;;;;;;5.95;2.95;;;21.60;99.90;;;;;;4974294;28;20042;-69
2022/09/12 09:56:27;;;;;;;15.45;4.93;;;21.60;99.90;;;;;;4992554;28;20535;-71
2022/09/12 09:58:52;;;;;;;10.32;3.80;;;21.80;99.90;;;;;;4975998;28;20411;-71
2022/09/12 10:01:18;;;;;;;3.90;2.25;;;21.80;99.90;;;;;;4975221;28;20041;-72
2022/09/12 10:03:55;;;;;;;4.45;2.40;;;21.90;99.90;;;;;;4991930;28;20030;-71
2022/09/12 10:06:24;;;;;;;3.35;1.90;;;22.10;99.90;;;;;;4958940;28;20037;-71
2022/09/12 10:08:50;;;;;;;3.65;1.95;;;22.20;99.90;;;;;;4974722;28;20502;-73
2022/09/12 10:11:21;;;;;;;5.28;2.13;;;22.40;99.90;;;;;;4991969;28;20039;-70
2022/09/12 10:13:51;;;;;;;4.70;2.03;;;22.60;99.90;;;;;;4991979;28;20084;-70
2022/09/12 10:16:28;;;;;;;4.55;2.22;;;22.60;99.90;;;;;;4992327;28;20042;-76
2022/09/12 10:18:57;;;;;;;5.45;2.50;;;22.70;99.90;;;;;;4967719;28;20034;-77
2022/09/12 10:21:38;;;;;;;4.75;2.13;;;22.40;99.90;;;;;;4992030;28;20030;-69
2022/09/12 10:24:29;;;;;;;3.85;2.20;;;22.30;99.90;;;;;;4985300;28;20430;-70
2022/09/12 10:27:21;;;;;;;3.22;1.77;;;22.50;99.90;;;;;;4992064;28;20569;-70
2022/09/12 10:30:16;;;;;;;4.22;2.17;;;22.50;99.90;;;;;;4958040;28;20069;-73
2022/09/12 10:32:52;;;;;;;2.85;1.77;;;22.60;99.90;;;;;;4992496;28;20030;-71
2022/09/12 10:35:32;;;;;;;3.60;2.10;;;22.60;99.90;;;;;;4990388;28;20440;-70
2022/09/12 10:38:05;;;;;;;5.30;2.08;;;22.40;99.90;;;;;;4992375;28;20088;-70
2022/09/12 10:40:40;;;;;;;4.88;1.73;;;22.60;99.90;;;;;;4975089;28;20105;-69
2022/09/12 10:43:24;;;;;;;5.13;2.38;;;23.10;99.90;;;;;;4974668;28;20062;-69
2022/09/12 10:45:50;;;;;;;3.08;1.85;;;23.20;99.90;;;;;;4989944;28;20066;-70
2022/09/12 10:48:32;;;;;;;6.82;2.13;;;23.30;99.90;;;;;;4991395;28;20125;-70
2022/09/12 10:50:59;;;;;;;4.63;2.20;;;23.70;99.90;;;;;;4990943;28;20573;-69
2022/09/12 10:53:41;;;;;;;12.52;2.15;;;23.90;99.90;;;;;;4991737;28;20039;-70
2022/09/12 10:56:11;;;;;;;13.55;3.03;;;23.90;99.90;;;;;;4990527;28;20038;-71
2022/09/12 10:59:19;;;;;;;10.45;2.85;;;24.00;99.90;;;;;;4991217;28;20150;-70
2022/09/12 11:02:01;;;;;;;5.78;1.60;;;23.70;99.90;;;;;;4992048;28;20403;-71
2022/09/12 11:05:00;;;;;;;4.25;1.70;;;23.90;99.90;;;;;;4990536;28;20049;-71
2022/09/12 11:07:36;;;;;;;2.63;1.73;;;23.90;99.60;;;;;;4990848;28;20113;-70
2022/09/12 11:10:48;;;;;;;3.33;1.75;;;24.20;99.90;;;;;;4975155;28;20038;-70
2022/09/12 11:13:32;;;;;;;3.78;1.85;;;24.60;99.70;;;;;;4976493;28;20038;-70
2022/09/12 11:16:14;;;;;;;9.52;3.38;;;24.70;98.70;;;;;;4974369;28;20537;-71
2022/09/12 11:19:18;;;;;;;2.63;1.60;;;24.80;97.90;;;;;;4975799;28;20034;-71
2022/09/12 11:22:04;;;;;;;6.82;1.40;;;24.60;97.50;;;;;;4991909;28;20036;-70
2022/09/12 11:24:36;;;;;;;5.05;2.42;;;24.60;96.80;;;;;;4976269;28;20061;-70
2022/09/12 11:27:41;;;;;;;20.30;1.67;;;25.20;96.50;;;;;;4991557;28;20498;-70
2022/09/12 11:30:12;;;;;;;2.20;1.25;;;24.90;96.80;;;;;;4991542;28;20144;-70
2022/09/12 11:33:04;;;;;;;2.45;1.45;;;24.90;95.80;;;;;;4973100;28;20030;-70
2022/09/12 11:35:41;;;;;;;6.57;1.75;;;24.70;96.40;;;;;;4991734;28;20061;-71
2022/09/12 11:38:49;;;;;;;1.25;0.90;;;25.20;96.00;;;;;;4975209;28;20030;-71
2022/09/12 11:41:28;;;;;;;2.28;1.30;;;25.30;95.00;;;;;;4973950;28;20083;-70
2022/09/12 11:44:13;;;;;;;2.35;1.45;;;25.70;94.00;;;;;;4991176;28;20026;-71
2022/09/12 11:46:44;;;;;;;2.70;1.60;;;25.50;93.80;;;;;;4991365;28;20419;-70
2022/09/12 11:49:12;;;;;;;1.95;0.90;;;25.70;93.80;;;;;;4990967;28;20118;-71
2022/09/12 11:52:00;;;;;;;2.75;1.20;;;25.70;94.40;;;;;;4990862;28;20442;-71
2022/09/12 11:54:44;;;;;;;1.75;1.08;;;25.70;94.10;;;;;;4973746;28;20042;-71
2022/09/12 11:57:32;;;;;;;2.08;1.00;;;25.10;93.70;;;;;;4991365;28;20050;-70
2022/09/12 12:00:25;;;;;;;3.10;1.33;;;25.40;93.80;;;;;;4974243;28;20034;-70
2022/09/12 12:03:29;;;;;;;2.30;1.23;;;25.50;93.90;;;;;;4980692;28;20049;-71
2022/09/12 12:06:25;;;;;;;4.78;2.38;;;25.80;92.40;;;;;;4975911;28;20046;-71
2022/09/12 12:08:51;;;;;;;2.58;1.48;;;26.10;92.50;;;;;;4974303;28;20077;-71
2022/09/12 12:11:42;;;;;;;2.42;1.23;;;26.20;92.40;;;;;;4990863;28;20073;-71
2022/09/12 12:14:21;;;;;;;13.10;2.35;;;26.10;91.50;;;;;;4990630;28;20031;-71
2022/09/12 12:16:48;;;;;;;7.22;1.40;;;25.90;91.80;;;;;;4989830;28;20041;-71
2022/09/12 12:19:14;;;;;;;1.98;1.00;;;26.60;90.90;;;;;;4989313;28;20161;-71
2022/09/12 12:21:45;;;;;;;1.25;0.80;;;26.70;90.20;;;;;;4991126;28;20113;-71
2022/09/12 12:24:19;;;;;;;2.03;0.77;;;26.60;89.50;;;;;;4990368;28;20080;-71
2022/09/12 12:27:00;;;;;;;1.70;0.93;;;26.50;89.30;;;;;;4989882;28;20030;-71
2022/09/12 12:29:41;;;;;;;1.25;0.80;;;26.70;89.20;;;;;;4989267;28;20038;-70
2022/09/12 12:32:07;;;;;;;0.90;0.73;;;26.80;90.10;;;;;;4989489;28;20057;-70
2022/09/12 12:34:37;;;;;;;1.40;0.85;;;26.90;90.80;;;;;;4990662;28;20339;-72
2022/09/12 12:37:18;;;;;;;1.50;0.73;;;26.90;89.40;;;;;;4989573;28;20030;-70
2022/09/12 12:39:47;;;;;;;2.95;0.98;;;26.80;88.70;;;;;;4990305;28;20034;-70
2022/09/12 12:42:31;;;;;;;1.17;0.90;;;26.90;88.20;;;;;;4990406;28;20038;-71
2022/09/12 12:44:58;;;;;;;3.55;0.88;;;27.10;86.30;;;;;;4992963;28;20104;-71
2022/09/12 12:47:32;;;;;;;1.02;0.80;;;26.80;86.60;;;;;;4977452;28;20030;-71
2022/09/12 12:50:04;;;;;;;9.35;2.70;;;26.70;85.20;;;;;;4977724;28;20043;-71
2022/09/12 12:52:41;;;;;;;0.95;0.80;;;27.30;88.50;;;;;;4976649;28;20044;-71
2022/09/12 12:55:25;;;;;;;3.90;1.20;;;27.20;84.30;;;;;;4978485;28;20102;-71
2022/09/12 12:57:56;;;;;;;4.43;0.90;;;27.40;88.10;;;;;;4978722;28;20040;-71
2022/09/12 13:00:34;;;;;;;0.60;0.60;;;27.40;84.60;;;;;;4976944;28;20026;-71
2022/09/12 13:03:16;;;;;;;0.73;0.57;;;27.10;82.90;;;;;;4994206;28;20046;-71
2022/09/12 13:05:56;;;;;;;4.03;0.80;;;27.60;83.60;;;;;;4994696;28;20038;-71
2022/09/12 13:08:34;;;;;;;1.97;0.93;;;28.10;86.10;;;;;;4977540;28;20040;-71
2022/09/12 13:11:28;;;;;;;1.73;0.85;;;27.80;84.20;;;;;;4961138;28;20034;-70
2022/09/12 13:14:05;;;;;;;0.88;0.60;;;28.30;82.20;;;;;;4976982;28;20116;-71
2022/09/12 13:16:38;;;;;;;1.60;0.90;;;28.50;83.40;;;;;;4977447;28;20026;-71
2022/09/12 13:19:19;;;;;;;1.15;0.80;;;29.50;81.50;;;;;;4993687;28;20037;-71
2022/09/12 13:22:08;;;;;;;0.90;0.65;;;28.30;81.40;;;;;;4978395;28;20074;-71
2022/09/12 13:24:56;;;;;;;2.37;0.70;;;27.60;80.80;;;;;;4994244;28;20034;-71
2022/09/12 13:27:24;;;;;;;1.15;0.70;;;28.50;79.30;;;;;;4994290;28;20796;-71
2022/09/12 13:30:14;;;;;;;0.93;0.52;;;29.20;78.20;;;;;;4993736;28;20479;-71
2022/09/12 13:32:41;;;;;;;2.60;0.60;;;28.10;77.50;;;;;;4976631;28;20080;-72